sensor_id;sensor_type;location;lat;lon;timestamp;P1;durP1;ratioP1;P2;durP2;ratioP2
75377;SDS011;63959;51.960;5.886;2023-04-15T12:30:05;5.90;;;1.90;;
75377;SDS011;63959;51.960;5.886;2023-04-15T12:32:35;6.95;;;1.77;;
75377;SDS011;63959;51.960;5.886;2023-04-15T12:35:04;3.35;;;1.30;;
75377;SDS011;63959;51.960;5.886;2023-04-15T12:37:33;4.53;;;1.50;;
75377;SDS011;63959;51.960;5.886;2023-04-15T12:40:02;5.50;;;2.10;;
75377;SDS011;63959;51.960;5.886;2023-04-15T12:42:31;5.40;;;1.90;;
75377;SDS011;63959;51.960;5.886;2023-04-15T12:45:00;4.40;;;1.55;;
75377;SDS011;63959;51.960;5.886;2023-04-15T12:47:31;5.07;;;2.05;;
75377;SDS011;63959;51.960;5.886;2023-04-15T12:50:00;9.25;;;4.80;;
75377;SDS011;63959;51.960;5.886;2023-04-15T12:52:29;8.20;;;2.47;;
75377;SDS011;63959;51.960;5.886;2023-04-15T12:54:58;4.43;;;1.77;;
75377;SDS011;63959;51.960;5.886;2023-04-15T12:57:26;5.07;;;2.20;;
75377;SDS011;63959;51.960;5.886;2023-04-15T12:59:55;5.93;;;2.42;;
75377;SDS011;63959;51.960;5.886;2023-04-15T13:02:24;5.75;;;1.90;;
75377;SDS011;63959;51.960;5.886;2023-04-15T13:04:56;4.57;;;1.60;;
75377;SDS011;63959;51.960;5.886;2023-04-15T13:07:25;4.88;;;1.90;;
75377;SDS011;63959;51.960;5.886;2023-04-15T13:09:53;4.72;;;1.83;;
75377;SDS011;63959;51.960;5.886;2023-04-15T13:12:22;3.90;;;1.88;;
75377;SDS011;63959;51.960;5.886;2023-04-15T13:14:51;3.50;;;1.45;;
75377;SDS011;63959;51.960;5.886;2023-04-15T13:17:19;6.43;;;2.53;;
75377;SDS011;63959;51.960;5.886;2023-04-15T13:19:48;5.25;;;1.85;;
75377;SDS011;63959;51.960;5.886;2023-04-15T13:22:20;3.83;;;1.38;;
75377;SDS011;63959;51.960;5.886;2023-04-15T13:24:48;4.50;;;1.30;;
75377;SDS011;63959;51.960;5.886;2023-04-15T13:27:17;3.33;;;1.10;;
75377;SDS011;63959;51.960;5.886;2023-04-15T13:29:46;3.13;;;1.10;;
75377;SDS011;63959;51.960;5.886;2023-04-15T13:32:15;4.03;;;1.10;;
75377;SDS011;63959;51.960;5.886;2023-04-15T13:34:44;4.57;;;1.30;;
75377;SDS011;63959;51.960;5.886;2023-04-15T13:37:12;3.42;;;1.20;;
75377;SDS011;63959;51.960;5.886;2023-04-15T13:39:44;2.58;;;1.00;;
75377;SDS011;63959;51.960;5.886;2023-04-15T13:42:12;3.20;;;1.15;;
75377;SDS011;63959;51.960;5.886;2023-04-15T13:44:41;3.90;;;1.13;;
75377;SDS011;63959;51.960;5.886;2023-04-15T13:47:10;4.38;;;1.10;;
75377;SDS011;63959;51.960;5.886;2023-04-15T13:49:40;3.50;;;1.20;;
75377;SDS011;63959;51.960;5.886;2023-04-15T13:52:09;4.90;;;1.20;;
75377;SDS011;63959;51.960;5.886;2023-04-15T13:54:38;2.72;;;1.10;;
75377;SDS011;63959;51.960;5.886;2023-04-15T13:57:09;6.13;;;1.20;;
75377;SDS011;63959;51.960;5.886;2023-04-15T13:59:38;2.70;;;1.08;;
75377;SDS011;63959;51.960;5.886;2023-04-15T14:02:07;4.40;;;1.20;;
75377;SDS011;63959;51.960;5.886;2023-04-15T14:04:36;4.35;;;1.20;;
75377;SDS011;63959;51.960;5.886;2023-04-15T14:07:04;3.75;;;1.02;;
75377;SDS011;63959;51.960;5.886;2023-04-15T14:09:33;3.90;;;1.00;;
75377;SDS011;63959;51.960;5.886;2023-04-15T14:12:05;3.83;;;1.10;;
75377;SDS011;63959;51.960;5.886;2023-04-15T14:14:37;3.40;;;1.10;;
75377;SDS011;63959;51.960;5.886;2023-04-15T14:17:06;2.95;;;0.95;;
75377;SDS011;63959;51.960;5.886;2023-04-15T14:19:34;5.55;;;1.08;;
75377;SDS011;63959;51.960;5.886;2023-04-15T14:22:03;2.10;;;1.05;;
75377;SDS011;63959;51.960;5.886;2023-04-15T14:24:32;3.70;;;1.00;;
75377;SDS011;63959;51.960;5.886;2023-04-15T14:27:01;2.95;;;1.13;;
75377;SDS011;63959;51.960;5.886;2023-04-15T14:29:30;3.53;;;1.27;;
75377;SDS011;63959;51.960;5.886;2023-04-15T14:32:01;7.05;;;2.83;;
75377;SDS011;63959;51.960;5.886;2023-04-15T14:34:30;3.95;;;1.33;;
75377;SDS011;63959;51.960;5.886;2023-04-15T14:36:59;8.75;;;4.55;;
75377;SDS011;63959;51.960;5.886;2023-04-15T14:42:33;3.28;;;1.40;;
75377;SDS011;63959;51.960;5.886;2023-04-15T14:45:04;4.45;;;1.15;;
75377;SDS011;63959;51.960;5.886;2023-04-15T14:47:36;4.28;;;1.80;;
75377;SDS011;63959;51.960;5.886;2023-04-15T14:50:05;4.40;;;2.08;;
75377;SDS011;63959;51.960;5.886;2023-04-15T14:52:34;7.82;;;3.05;;
75377;SDS011;63959;51.960;5.886;2023-04-15T14:55:03;6.07;;;1.83;;
75377;SDS011;63959;51.960;5.886;2023-04-15T14:57:32;4.78;;;1.50;;
75377;SDS011;63959;51.960;5.886;2023-04-15T15:00:01;5.25;;;2.10;;
75377;SDS011;63959;51.960;5.886;2023-04-15T15:02:30;5.82;;;2.40;;
75377;SDS011;63959;51.960;5.886;2023-04-15T15:05:02;6.30;;;2.60;;
75377;SDS011;63959;51.960;5.886;2023-04-15T15:07:30;9.05;;;5.22;;
75377;SDS011;63959;51.960;5.886;2023-04-15T15:10:00;8.88;;;3.42;;
75377;SDS011;63959;51.960;5.886;2023-04-15T15:12:29;5.28;;;1.70;;
75377;SDS011;63959;51.960;5.886;2023-04-15T15:14:57;5.85;;;1.58;;
75377;SDS011;63959;51.960;5.886;2023-04-15T15:17:26;4.45;;;1.60;;
75377;SDS011;63959;51.960;5.886;2023-04-15T15:19:55;3.20;;;1.60;;
75377;SDS011;63959;51.960;5.886;2023-04-15T15:22:26;6.07;;;2.38;;
75377;SDS011;63959;51.960;5.886;2023-04-15T15:24:55;5.30;;;1.77;;
75377;SDS011;63959;51.960;5.886;2023-04-15T15:27:25;4.00;;;1.13;;
75377;SDS011;63959;51.960;5.886;2023-04-15T15:29:54;6.32;;;2.28;;
75377;SDS011;63959;51.960;5.886;2023-04-15T15:32:23;5.47;;;1.35;;
75377;SDS011;63959;51.960;5.886;2023-04-15T15:34:52;5.47;;;1.58;;
75377;SDS011;63959;51.960;5.886;2023-04-15T15:37:20;7.70;;;2.13;;
75377;SDS011;63959;51.960;5.886;2023-04-15T15:39:53;3.78;;;1.40;;
75377;SDS011;63959;51.960;5.886;2023-04-15T15:42:21;5.22;;;1.70;;
75377;SDS011;63959;51.960;5.886;2023-04-15T15:44:51;5.78;;;1.48;;
75377;SDS011;63959;51.960;5.886;2023-04-15T15:47:20;5.90;;;1.45;;
75377;SDS011;63959;51.960;5.886;2023-04-15T15:49:51;6.60;;;1.90;;
75377;SDS011;63959;51.960;5.886;2023-04-15T15:52:20;7.90;;;1.88;;
75377;SDS011;63959;51.960;5.886;2023-04-15T15:54:48;6.53;;;1.73;;
75377;SDS011;63959;51.960;5.886;2023-04-15T15:57:19;4.10;;;1.60;;
75377;SDS011;63959;51.960;5.886;2023-04-15T15:59:48;4.97;;;1.45;;
75377;SDS011;63959;51.960;5.886;2023-04-15T16:02:17;5.18;;;1.20;;
75377;SDS011;63959;51.960;5.886;2023-04-15T16:04:46;4.47;;;1.35;;
75377;SDS011;63959;51.960;5.886;2023-04-15T16:07:17;4.63;;;1.40;;
75377;SDS011;63959;51.960;5.886;2023-04-15T16:09:45;7.25;;;1.50;;
75377;SDS011;63959;51.960;5.886;2023-04-15T16:12:14;6.97;;;1.70;;
75377;SDS011;63959;51.960;5.886;2023-04-15T16:14:45;5.63;;;1.60;;
75377;SDS011;63959;51.960;5.886;2023-04-15T16:17:14;6.40;;;1.42;;
75377;SDS011;63959;51.960;5.886;2023-04-15T16:19:43;5.60;;;1.70;;
75377;SDS011;63959;51.960;5.886;2023-04-15T16:22:12;5.13;;;1.40;;
75377;SDS011;63959;51.960;5.886;2023-04-15T16:24:41;7.75;;;1.65;;
75377;SDS011;63959;51.960;5.886;2023-04-15T16:27:10;3.88;;;1.33;;
75377;SDS011;63959;51.960;5.886;2023-04-15T16:29:40;5.47;;;1.25;;
75377;SDS011;63959;51.960;5.886;2023-04-15T16:32:12;5.55;;;1.40;;
75377;SDS011;63959;51.960;5.886;2023-04-15T16:34:41;6.22;;;1.33;;
75377;SDS011;63959;51.960;5.886;2023-04-15T16:37:10;5.00;;;1.25;;
75377;SDS011;63959;51.960;5.886;2023-04-15T16:39:38;5.05;;;1.20;;
75377;SDS011;63959;51.960;5.886;2023-04-15T16:42:07;4.68;;;1.40;;
75377;SDS011;63959;51.960;5.886;2023-04-15T16:44:36;5.93;;;1.40;;
75377;SDS011;63959;51.960;5.886;2023-04-15T16:47:05;3.83;;;1.20;;
75377;SDS011;63959;51.960;5.886;2023-04-15T16:49:38;5.35;;;1.45;;
75377;SDS011;63959;51.960;5.886;2023-04-15T16:52:06;6.80;;;2.08;;
75377;SDS011;63959;51.960;5.886;2023-04-15T16:54:35;7.90;;;1.52;;
75377;SDS011;63959;51.960;5.886;2023-04-15T16:57:05;7.35;;;1.38;;
75377;SDS011;63959;51.960;5.886;2023-04-15T16:59:34;5.57;;;1.13;;
75377;SDS011;63959;51.960;5.886;2023-04-15T17:02:03;9.02;;;1.65;;
75377;SDS011;63959;51.960;5.886;2023-04-15T17:04:31;9.82;;;1.42;;
75377;SDS011;63959;51.960;5.886;2023-04-15T17:07:03;7.88;;;1.50;;
75377;SDS011;63959;51.960;5.886;2023-04-15T17:09:31;7.88;;;1.45;;
75377;SDS011;63959;51.960;5.886;2023-04-15T17:12:00;8.32;;;1.33;;
75377;SDS011;63959;51.960;5.886;2023-04-15T17:14:30;8.90;;;1.77;;
75377;SDS011;63959;51.960;5.886;2023-04-15T17:16:59;6.57;;;2.08;;
75377;SDS011;63959;51.960;5.886;2023-04-15T17:19:28;8.07;;;1.50;;
75377;SDS011;63959;51.960;5.886;2023-04-15T17:21:58;7.78;;;1.48;;
75377;SDS011;63959;51.960;5.886;2023-04-15T17:24:29;6.63;;;1.27;;
75377;SDS011;63959;51.960;5.886;2023-04-15T17:26:58;6.60;;;1.17;;
75377;SDS011;63959;51.960;5.886;2023-04-15T17:29:27;4.18;;;1.48;;
75377;SDS011;63959;51.960;5.886;2023-04-15T17:31:55;7.22;;;1.30;;
75377;SDS011;63959;51.960;5.886;2023-04-15T17:34:24;10.93;;;1.98;;
75377;SDS011;63959;51.960;5.886;2023-04-15T17:36:53;7.10;;;1.30;;
75377;SDS011;63959;51.960;5.886;2023-04-15T17:39:21;3.75;;;1.10;;
75377;SDS011;63959;51.960;5.886;2023-04-15T17:41:53;6.22;;;1.20;;
75377;SDS011;63959;51.960;5.886;2023-04-15T17:44:21;5.63;;;1.30;;
75377;SDS011;63959;51.960;5.886;2023-04-15T17:46:50;8.95;;;1.55;;
75377;SDS011;63959;51.960;5.886;2023-04-15T17:49:19;6.38;;;1.52;;
75377;SDS011;63959;51.960;5.886;2023-04-15T17:51:48;6.40;;;1.70;;
75377;SDS011;63959;51.960;5.886;2023-04-15T17:54:19;7.80;;;1.60;;
75377;SDS011;63959;51.960;5.886;2023-04-15T17:56:48;5.22;;;1.52;;
75377;SDS011;63959;51.960;5.886;2023-04-15T17:59:19;8.07;;;1.80;;
75377;SDS011;63959;51.960;5.886;2023-04-15T18:01:47;10.35;;;1.98;;
75377;SDS011;63959;51.960;5.886;2023-04-15T18:04:16;6.82;;;1.38;;
75377;SDS011;63959;51.960;5.886;2023-04-15T18:06:45;9.50;;;1.80;;
75377;SDS011;63959;51.960;5.886;2023-04-15T18:09:14;7.88;;;1.40;;
75377;SDS011;63959;51.960;5.886;2023-04-15T18:11:43;7.15;;;1.30;;
75377;SDS011;63959;51.960;5.886;2023-04-15T18:14:13;6.60;;;1.33;;
75377;SDS011;63959;51.960;5.886;2023-04-15T18:16:44;6.53;;;1.45;;
75377;SDS011;63959;51.960;5.886;2023-04-15T18:19:14;8.13;;;1.65;;
75377;SDS011;63959;51.960;5.886;2023-04-15T18:21:43;10.30;;;1.52;;
75377;SDS011;63959;51.960;5.886;2023-04-15T18:24:12;9.45;;;1.70;;
75377;SDS011;63959;51.960;5.886;2023-04-15T18:26:41;10.05;;;1.50;;
75377;SDS011;63959;51.960;5.886;2023-04-15T18:29:10;11.45;;;1.73;;
75377;SDS011;63959;51.960;5.886;2023-04-15T18:31:39;7.53;;;1.60;;
75377;SDS011;63959;51.960;5.886;2023-04-15T18:34:10;4.28;;;1.00;;
75377;SDS011;63959;51.960;5.886;2023-04-15T18:36:39;9.32;;;1.58;;
75377;SDS011;63959;51.960;5.886;2023-04-15T18:39:07;6.43;;;1.95;;
75377;SDS011;63959;51.960;5.886;2023-04-15T18:41:36;6.25;;;1.50;;
75377;SDS011;63959;51.960;5.886;2023-04-15T18:44:05;7.28;;;1.70;;
75377;SDS011;63959;51.960;5.886;2023-04-15T18:46:34;6.20;;;1.50;;
75377;SDS011;63959;51.960;5.886;2023-04-15T18:49:03;8.40;;;1.42;;
75377;SDS011;63959;51.960;5.886;2023-04-15T18:51:34;6.55;;;1.40;;
75377;SDS011;63959;51.960;5.886;2023-04-15T18:54:03;7.80;;;1.15;;
75377;SDS011;63959;51.960;5.886;2023-04-15T18:56:32;5.50;;;1.02;;
75377;SDS011;63959;51.960;5.886;2023-04-15T18:59:01;7.45;;;1.58;;
75377;SDS011;63959;51.960;5.886;2023-04-15T19:01:30;6.80;;;1.50;;
75377;SDS011;63959;51.960;5.886;2023-04-15T19:03:59;10.77;;;1.65;;
75377;SDS011;63959;51.960;5.886;2023-04-15T19:06:28;7.05;;;1.90;;
75377;SDS011;63959;51.960;5.886;2023-04-15T19:08:59;8.38;;;1.30;;
75377;SDS011;63959;51.960;5.886;2023-04-15T19:11:28;6.72;;;1.50;;
75377;SDS011;63959;51.960;5.886;2023-04-15T19:13:56;6.03;;;1.23;;
75377;SDS011;63959;51.960;5.886;2023-04-15T19:16:25;5.78;;;1.27;;
75377;SDS011;63959;51.960;5.886;2023-04-15T19:18:54;10.23;;;1.50;;
75377;SDS011;63959;51.960;5.886;2023-04-15T19:21:23;5.03;;;1.10;;
75377;SDS011;63959;51.960;5.886;2023-04-15T19:23:52;5.63;;;1.25;;
75377;SDS011;63959;51.960;5.886;2023-04-15T19:26:24;4.20;;;1.15;;
75377;SDS011;63959;51.960;5.886;2023-04-15T19:28:53;8.82;;;2.30;;
75377;SDS011;63959;51.960;5.886;2023-04-15T19:31:23;8.25;;;1.63;;
75377;SDS011;63959;51.960;5.886;2023-04-15T19:33:52;5.25;;;1.35;;
75377;SDS011;63959;51.960;5.886;2023-04-15T19:36:21;7.13;;;1.38;;
75377;SDS011;63959;51.960;5.886;2023-04-15T19:38:50;5.72;;;1.60;;
75377;SDS011;63959;51.960;5.886;2023-04-15T19:41:18;8.52;;;1.73;;
75377;SDS011;63959;51.960;5.886;2023-04-15T19:43:50;8.80;;;1.50;;
75377;SDS011;63959;51.960;5.886;2023-04-15T19:46:19;6.15;;;1.20;;
75377;SDS011;63959;51.960;5.886;2023-04-15T19:48:50;7.20;;;1.40;;
75377;SDS011;63959;51.960;5.886;2023-04-15T19:51:22;6.35;;;1.48;;
75377;SDS011;63959;51.960;5.886;2023-04-15T19:53:51;8.30;;;1.80;;
75377;SDS011;63959;51.960;5.886;2023-04-15T19:56:27;6.05;;;1.88;;
75377;SDS011;63959;51.960;5.886;2023-04-15T19:59:00;6.28;;;1.48;;
75377;SDS011;63959;51.960;5.886;2023-04-15T20:01:29;4.93;;;1.60;;
75377;SDS011;63959;51.960;5.886;2023-04-15T20:04:05;5.95;;;1.27;;
75377;SDS011;63959;51.960;5.886;2023-04-15T20:06:38;6.88;;;1.60;;
75377;SDS011;63959;51.960;5.886;2023-04-15T20:09:07;5.18;;;1.50;;
75377;SDS011;63959;51.960;5.886;2023-04-15T20:11:36;5.72;;;1.60;;
75377;SDS011;63959;51.960;5.886;2023-04-15T20:14:09;5.97;;;1.38;;
75377;SDS011;63959;51.960;5.886;2023-04-15T20:16:38;6.50;;;1.90;;
75377;SDS011;63959;51.960;5.886;2023-04-15T20:19:06;6.20;;;1.75;;
75377;SDS011;63959;51.960;5.886;2023-04-15T20:21:36;6.70;;;1.77;;
75377;SDS011;63959;51.960;5.886;2023-04-15T20:24:05;6.38;;;1.30;;
75377;SDS011;63959;51.960;5.886;2023-04-15T20:26:34;7.55;;;1.35;;
75377;SDS011;63959;51.960;5.886;2023-04-15T20:29:02;7.78;;;1.60;;
75377;SDS011;63959;51.960;5.886;2023-04-15T20:31:34;5.47;;;1.35;;
75377;SDS011;63959;51.960;5.886;2023-04-15T20:34:03;6.45;;;1.45;;
75377;SDS011;63959;51.960;5.886;2023-04-15T20:36:33;5.57;;;1.45;;
75377;SDS011;63959;51.960;5.886;2023-04-15T20:39:02;6.38;;;1.52;;
75377;SDS011;63959;51.960;5.886;2023-04-15T20:41:30;4.10;;;1.80;;
75377;SDS011;63959;51.960;5.886;2023-04-15T20:43:59;6.18;;;1.42;;
75377;SDS011;63959;51.960;5.886;2023-04-15T20:46:28;6.28;;;1.27;;
75377;SDS011;63959;51.960;5.886;2023-04-15T20:48:59;4.78;;;1.30;;
75377;SDS011;63959;51.960;5.886;2023-04-15T20:51:28;7.57;;;1.65;;
75377;SDS011;63959;51.960;5.886;2023-04-15T20:54:03;7.63;;;1.52;;
75377;SDS011;63959;51.960;5.886;2023-04-15T20:56:32;7.97;;;2.22;;
75377;SDS011;63959;51.960;5.886;2023-04-15T20:59:00;5.28;;;1.75;;
75377;SDS011;63959;51.960;5.886;2023-04-15T21:01:29;5.50;;;1.30;;
75377;SDS011;63959;51.960;5.886;2023-04-15T21:04:01;5.88;;;1.63;;
75377;SDS011;63959;51.960;5.886;2023-04-15T21:06:30;5.15;;;1.30;;
75377;SDS011;63959;51.960;5.886;2023-04-15T21:08:58;5.50;;;1.35;;
75377;SDS011;63959;51.960;5.886;2023-04-15T21:11:27;6.47;;;1.60;;
75377;SDS011;63959;51.960;5.886;2023-04-15T21:13:57;5.53;;;1.73;;
75377;SDS011;63959;51.960;5.886;2023-04-15T21:16:28;8.18;;;1.92;;
75377;SDS011;63959;51.960;5.886;2023-04-15T21:19:01;8.68;;;1.77;;
75377;SDS011;63959;51.960;5.886;2023-04-15T21:21:32;4.68;;;1.42;;
75377;SDS011;63959;51.960;5.886;2023-04-15T21:24:01;6.40;;;1.83;;
75377;SDS011;63959;51.960;5.886;2023-04-15T21:26:31;8.00;;;1.50;;
75377;SDS011;63959;51.960;5.886;2023-04-15T21:29:00;6.38;;;1.77;;
75377;SDS011;63959;51.960;5.886;2023-04-15T21:31:29;4.88;;;1.45;;
75377;SDS011;63959;51.960;5.886;2023-04-15T21:34:00;6.93;;;1.77;;
75377;SDS011;63959;51.960;5.886;2023-04-15T21:36:29;6.88;;;1.95;;
75377;SDS011;63959;51.960;5.886;2023-04-15T21:39:00;6.28;;;1.60;;
75377;SDS011;63959;51.960;5.886;2023-04-15T21:41:29;4.13;;;1.63;;
75377;SDS011;63959;51.960;5.886;2023-04-15T21:43:58;3.92;;;1.20;;
75377;SDS011;63959;51.960;5.886;2023-04-15T21:46:26;3.38;;;1.40;;
75377;SDS011;63959;51.960;5.886;2023-04-15T21:48:55;8.13;;;2.03;;
75377;SDS011;63959;51.960;5.886;2023-04-15T21:51:26;9.35;;;2.00;;
75377;SDS011;63959;51.960;5.886;2023-04-15T21:53:56;6.32;;;1.63;;
75377;SDS011;63959;51.960;5.886;2023-04-15T21:56:24;9.77;;;2.00;;
75377;SDS011;63959;51.960;5.886;2023-04-15T21:58:54;7.97;;;2.33;;
75377;SDS011;63959;51.960;5.886;2023-04-15T22:01:24;9.23;;;2.60;;
75377;SDS011;63959;51.960;5.886;2023-04-15T22:03:53;6.93;;;1.95;;
75377;SDS011;63959;51.960;5.886;2023-04-15T22:06:22;5.68;;;2.33;;
75377;SDS011;63959;51.960;5.886;2023-04-15T22:08:54;7.90;;;2.25;;
75377;SDS011;63959;51.960;5.886;2023-04-15T22:11:23;6.97;;;2.65;;
75377;SDS011;63959;51.960;5.886;2023-04-15T22:13:55;8.30;;;2.58;;
75377;SDS011;63959;51.960;5.886;2023-04-15T22:16:24;7.75;;;2.20;;
75377;SDS011;63959;51.960;5.886;2023-04-15T22:18:53;8.65;;;2.80;;
75377;SDS011;63959;51.960;5.886;2023-04-15T22:21:28;12.35;;;3.55;;
75377;SDS011;63959;51.960;5.886;2023-04-15T22:24:03;6.38;;;1.85;;
75377;SDS011;63959;51.960;5.886;2023-04-15T22:26:32;7.55;;;2.53;;
75377;SDS011;63959;51.960;5.886;2023-04-15T22:29:00;7.85;;;1.85;;
75377;SDS011;63959;51.960;5.886;2023-04-15T22:31:30;6.03;;;2.38;;
75377;SDS011;63959;51.960;5.886;2023-04-15T22:33:58;8.07;;;2.80;;
75377;SDS011;63959;51.960;5.886;2023-04-15T22:36:27;6.22;;;2.28;;
75377;SDS011;63959;51.960;5.886;2023-04-15T22:38:56;8.93;;;2.42;;
75377;SDS011;63959;51.960;5.886;2023-04-15T22:41:27;9.45;;;2.65;;
75377;SDS011;63959;51.960;5.886;2023-04-15T22:43:57;9.15;;;2.42;;
75377;SDS011;63959;51.960;5.886;2023-04-15T22:46:28;9.52;;;2.50;;
75377;SDS011;63959;51.960;5.886;2023-04-15T22:49:00;6.57;;;2.28;;
75377;SDS011;63959;51.960;5.886;2023-04-15T22:51:36;7.65;;;2.78;;
75377;SDS011;63959;51.960;5.886;2023-04-15T22:54:05;12.93;;;4.25;;
75377;SDS011;63959;51.960;5.886;2023-04-15T22:56:40;12.68;;;3.47;;
75377;SDS011;63959;51.960;5.886;2023-04-15T22:59:09;13.90;;;3.50;;
75377;SDS011;63959;51.960;5.886;2023-04-15T23:01:37;10.40;;;3.45;;
75377;SDS011;63959;51.960;5.886;2023-04-15T23:04:09;9.90;;;3.80;;
75377;SDS011;63959;51.960;5.886;2023-04-15T23:06:38;12.68;;;3.65;;
75377;SDS011;63959;51.960;5.886;2023-04-15T23:09:12;13.30;;;3.58;;
75377;SDS011;63959;51.960;5.886;2023-04-15T23:11:44;13.15;;;4.15;;
75377;SDS011;63959;51.960;5.886;2023-04-15T23:14:23;10.05;;;3.22;;
75377;SDS011;63959;51.960;5.886;2023-04-15T23:16:55;14.07;;;4.70;;
75377;SDS011;63959;51.960;5.886;2023-04-15T23:19:27;10.23;;;3.03;;
75377;SDS011;63959;51.960;5.886;2023-04-15T23:21:57;14.63;;;4.15;;
75377;SDS011;63959;51.960;5.886;2023-04-15T23:24:35;12.40;;;4.63;;
75377;SDS011;63959;51.960;5.886;2023-04-15T23:27:06;9.82;;;3.83;;
75377;SDS011;63959;51.960;5.886;2023-04-15T23:29:35;14.02;;;4.60;;
75377;SDS011;63959;51.960;5.886;2023-04-15T23:32:04;12.10;;;3.90;;
75377;SDS011;63959;51.960;5.886;2023-04-15T23:34:33;11.27;;;4.30;;
75377;SDS011;63959;51.960;5.886;2023-04-15T23:37:01;11.90;;;3.97;;
75377;SDS011;63959;51.960;5.886;2023-04-15T23:39:30;9.07;;;3.55;;
75377;SDS011;63959;51.960;5.886;2023-04-15T23:41:59;17.67;;;4.95;;
75377;SDS011;63959;51.960;5.886;2023-04-15T23:44:30;11.73;;;4.00;;
75377;SDS011;63959;51.960;5.886;2023-04-15T23:46:59;15.20;;;4.72;;
75377;SDS011;63959;51.960;5.886;2023-04-15T23:49:27;15.18;;;5.22;;
75377;SDS011;63959;51.960;5.886;2023-04-15T23:51:56;9.77;;;3.60;;
75377;SDS011;63959;51.960;5.886;2023-04-15T23:54:24;14.75;;;5.22;;
75377;SDS011;63959;51.960;5.886;2023-04-15T23:56:53;15.40;;;5.30;;
75377;SDS011;63959;51.960;5.886;2023-04-15T23:59:22;15.48;;;5.13;;
